Time;durP1;ratioP1;P1;durP2;ratioP2;P2;SDS_P1;SDS_P2;PMS_P1;PMS_P2;Temp;Humidity;BMP_temperature;BMP_pressure;BME280_temperature;BME280_humidity;BME280_pressure;Samples;Min_cycle;Max_cycle;Signal;HPM_P1;HPM_P2
2023/12/09 00:00:11;;;;;;;87.42;32.05;;;;;;;-4.06;93.47;100716.62;1747271;80;25519;-52
2023/12/09 00:06:26;;;;;;;82.97;31.97;;;;;;;-3.95;93.47;100720.48;1773494;80;25556;-50
2023/12/09 00:08:53;;;;;;;86.60;31.52;;;;;;;-3.92;93.32;100716.63;1761899;81;27493;-51
2023/12/09 00:11:21;;;;;;;86.05;31.90;;;;;;;-3.90;93.22;100707.98;1773321;80;25726;-50
2023/12/09 00:13:49;;;;;;;85.70;31.30;;;;;;;-3.91;93.10;100705.06;1761943;81;25558;-50
2023/12/09 00:16:16;;;;;;;94.75;32.28;;;;;;;-3.93;92.98;100706.58;1773292;80;25460;-50
2023/12/09 00:30:41;;;;;;;88.40;30.65;;;;;;;-3.91;92.91;100694.48;1773322;80;25429;-49
2023/12/09 00:33:08;;;;;;;82.62;31.05;;;;;;;-3.92;92.89;100692.84;1761983;81;25383;-50
2023/12/09 00:35:35;;;;;;;86.45;30.37;;;;;;;-3.97;92.87;100684.20;1773347;80;25469;-50
2023/12/09 00:38:02;;;;;;;84.45;29.80;;;;;;;-3.97;92.92;100692.96;1761870;81;27478;-53
2023/12/09 00:40:29;;;;;;;82.65;32.25;;;;;;;-3.98;92.89;100689.20;1793112;80;25605;-52
2023/12/09 00:42:56;;;;;;;97.05;38.42;;;;;;;-3.97;93.07;100690.31;1761931;81;25541;-51
2023/12/09 00:45:25;;;;;;;85.85;34.40;;;;;;;-3.95;93.33;100696.70;1747227;80;25500;-52
2023/12/09 00:47:52;;;;;;;85.03;30.27;;;;;;;-3.92;93.37;100696.30;1761975;81;25579;-52
2023/12/09 00:50:19;;;;;;;84.03;28.02;;;;;;;-3.88;93.37;100692.25;1793272;80;28023;-52
2023/12/09 00:52:46;;;;;;;78.17;29.18;;;;;;;-3.90;93.12;100690.81;1733768;81;26062;-50
2023/12/09 00:55:12;;;;;;;78.83;30.43;;;;;;;-3.95;92.93;100692.24;1773302;80;25607;-50
2023/12/09 00:57:39;;;;;;;78.67;29.27;;;;;;;-3.96;92.89;100689.80;1761952;81;25472;-50
2023/12/09 01:00:07;;;;;;;84.07;28.50;;;;;;;-3.98;92.96;100681.27;1793263;80;25358;-51
2023/12/09 01:02:35;;;;;;;78.50;28.67;;;;;;;-3.97;92.88;100681.55;1761904;81;27459;-50
2023/12/09 01:05:03;;;;;;;82.67;29.10;;;;;;;-4.00;92.89;100678.83;1773244;80;25615;-51
2023/12/09 01:07:30;;;;;;;84.28;30.08;;;;;;;-4.02;92.91;100683.99;1761892;81;25541;-50
2023/12/09 01:09:57;;;;;;;82.00;29.60;;;;;;;-4.05;92.86;100685.23;1793216;80;25475;-52
2023/12/09 01:12:23;;;;;;;72.60;27.75;;;;;;;-4.08;92.90;100679.02;1761959;81;25562;-52
2023/12/09 01:14:51;;;;;;;81.15;30.00;;;;;;;-4.08;92.94;100679.53;1773322;80;27622;-51
2023/12/09 01:17:18;;;;;;;75.95;27.90;;;;;;;-4.08;93.08;100682.18;1761794;81;25438;-51
2023/12/09 01:19:44;;;;;;;75.60;29.37;;;;;;;-4.11;93.06;100674.13;1773285;80;25509;-52
2023/12/09 01:22:11;;;;;;;73.78;27.40;;;;;;;-4.13;93.14;100678.30;1761816;81;25551;-52
2023/12/09 01:24:37;;;;;;;80.47;28.90;;;;;;;-4.15;93.22;100663.67;1793288;80;25534;-50
2023/12/09 01:27:05;;;;;;;77.67;28.85;;;;;;;-4.17;93.25;100661.23;1761935;81;27649;-51
2023/12/09 01:29:32;;;;;;;78.00;28.20;;;;;;;-4.17;93.42;100654.63;1791842;80;25696;-50
2023/12/09 01:31:59;;;;;;;80.10;30.30;;;;;;;-4.20;93.36;100655.55;1761141;81;25523;-50
2023/12/09 01:34:25;;;;;;;76.55;29.27;;;;;;;-4.23;93.44;100651.47;1793290;80;25606;-51
2023/12/09 01:36:54;;;;;;;80.30;30.40;;;;;;;-4.22;93.70;100647.82;1761934;81;25619;-51
2023/12/09 01:39:21;;;;;;;74.50;28.73;;;;;;;-4.21;93.63;100657.36;1773296;80;28111;-51
2023/12/09 01:41:47;;;;;;;74.10;27.50;;;;;;;-4.20;93.72;100653.71;1761812;81;25610;-51
2023/12/09 01:44:14;;;;;;;79.10;29.37;;;;;;;-4.19;93.85;100652.70;1773285;80;25491;-53
2023/12/09 01:46:41;;;;;;;80.15;29.48;;;;;;;-4.21;93.76;100652.07;1761819;81;25391;-50
2023/12/09 01:49:10;;;;;;;88.00;30.72;;;;;;;-4.22;93.78;100648.31;1773172;80;25555;-50
2023/12/09 01:51:38;;;;;;;74.87;28.80;;;;;;;-4.27;93.66;100646.30;1761897;81;28042;-49
2023/12/09 01:54:05;;;;;;;80.87;29.77;;;;;;;-4.28;93.83;100640.69;1772719;80;25424;-52
2023/12/09 01:56:32;;;;;;;77.30;27.77;;;;;;;-4.29;93.90;100640.41;1761890;81;25669;-51
2023/12/09 01:59:00;;;;;;;68.10;26.70;;;;;;;-4.31;93.95;100637.13;1773230;80;27301;-54
2023/12/09 02:01:30;;;;;;;80.20;28.17;;;;;;;-4.33;93.90;100641.80;1762002;81;25550;-52
2023/12/09 02:03:57;;;;;;;78.12;27.67;;;;;;;-4.36;93.97;100640.40;1773446;80;27467;-51
2023/12/09 02:06:24;;;;;;;76.53;28.73;;;;;;;-4.37;94.16;100644.05;1761801;81;25564;-52
2023/12/09 02:08:52;;;;;;;74.07;27.98;;;;;;;-4.37;94.23;100643.23;1773277;80;25531;-51
2023/12/09 02:11:28;;;;;;;80.12;27.98;;;;;;;-4.36;94.34;100649.64;1761820;81;25496;-52
2023/12/09 02:14:10;;;;;;;77.67;27.67;;;;;;;-4.36;94.38;100645.68;1781946;80;25419;-54
2023/12/09 02:16:45;;;;;;;69.75;27.20;;;;;;;-4.38;94.40;100646.87;1761878;81;28240;-50
2023/12/09 02:19:14;;;;;;;79.07;28.02;;;;;;;-4.39;94.47;100647.39;1793029;80;25713;-50
2023/12/09 02:22:01;;;;;;;71.05;28.12;;;;;;;-4.37;94.63;100649.33;1762012;81;25540;-50
2023/12/09 02:24:29;;;;;;;70.92;26.55;;;;;;;-4.36;94.61;100642.20;1760754;81;25700;-50
2023/12/09 02:27:13;;;;;;;74.82;26.50;;;;;;;-4.35;94.68;100646.48;1773303;80;25441;-51
2023/12/09 02:29:57;;;;;;;71.22;27.25;;;;;;;-4.33;94.81;100643.93;1761825;81;27517;-50
2023/12/09 02:32:28;;;;;;;74.15;26.77;;;;;;;-4.35;94.64;100642.52;1772751;80;25559;-49
2023/12/09 02:34:56;;;;;;;67.35;27.75;;;;;;;-4.35;94.69;100647.29;1761965;81;25606;-50
2023/12/09 02:38:06;;;;;;;69.70;26.07;;;;;;;-4.34;94.81;100642.33;1773368;80;26066;-49
2023/12/09 02:40:35;;;;;;;64.50;25.77;;;;;;;-4.32;94.82;100638.16;1762031;81;25547;-49
2023/12/09 02:43:03;;;;;;;73.70;27.20;;;;;;;-4.33;94.75;100624.64;1773539;80;27463;-50
2023/12/09 02:45:31;;;;;;;71.22;26.57;;;;;;;-4.33;94.80;100632.56;1761900;81;25694;-50
2023/12/09 02:47:58;;;;;;;63.63;25.62;;;;;;;-4.36;94.88;100636.44;1793295;80;25571;-51
2023/12/09 02:50:25;;;;;;;72.80;26.23;;;;;;;-4.37;94.86;100640.08;1757493;81;25546;-50
2023/12/09 02:52:51;;;;;;;65.42;25.77;;;;;;;-4.36;94.92;100634.28;1770457;81;25405;-50
2023/12/09 02:55:18;;;;;;;78.62;26.62;;;;;;;-4.37;95.00;100629.52;1756346;81;27491;-50
2023/12/09 02:57:44;;;;;;;74.03;26.45;;;;;;;-4.37;95.07;100626.87;1770310;81;25615;-50
2023/12/09 03:00:13;;;;;;;73.45;27.22;;;;;;;-4.38;95.19;100633.16;1756332;81;25592;-51
2023/12/09 03:02:39;;;;;;;68.45;26.85;;;;;;;-4.36;95.25;100627.68;1776367;80;25521;-51
2023/12/09 03:05:07;;;;;;;73.12;28.17;;;;;;;-4.35;95.44;100628.00;1776426;80;25401;-50
2023/12/09 03:07:35;;;;;;;76.90;25.48;;;;;;;-4.36;95.31;100624.55;1756329;81;27468;-51
2023/12/09 03:10:02;;;;;;;73.72;27.02;;;;;;;-4.35;95.43;100619.55;1770245;81;25674;-52
2023/12/09 03:12:28;;;;;;;68.00;26.55;;;;;;;-4.36;95.39;100612.66;1756333;81;25632;-50
2023/12/09 03:14:55;;;;;;;71.60;26.23;;;;;;;-4.36;95.41;100612.66;1776367;80;25516;-50
2023/12/09 03:17:22;;;;;;;62.43;24.80;;;;;;;-4.33;95.53;100617.52;1776450;80;25547;-51
2023/12/09 03:19:49;;;;;;;66.75;24.72;;;;;;;-4.30;95.71;100622.92;1776408;80;27503;-51
2023/12/09 03:22:15;;;;;;;73.60;25.72;;;;;;;-4.30;95.48;100620.28;1776285;80;25664;-50
2023/12/09 03:24:45;;;;;;;71.70;27.55;;;;;;;-4.29;95.58;100625.88;1756312;81;25406;-51
2023/12/09 03:27:11;;;;;;;68.42;26.55;;;;;;;-4.27;95.62;100619.05;1770356;81;26084;-53
2023/12/09 03:29:38;;;;;;;74.53;26.52;;;;;;;-4.26;95.56;100622.00;1756278;81;25373;-53
2023/12/09 03:32:05;;;;;;;71.85;26.15;;;;;;;-4.27;95.63;100622.52;1776436;80;28089;-53
2023/12/09 03:34:32;;;;;;;64.87;23.55;;;;;;;-4.27;95.58;100617.72;1756274;81;25371;-53
2023/12/09 03:36:58;;;;;;;64.85;25.30;;;;;;;-4.27;95.63;100624.33;1776431;80;25555;-50
2023/12/09 03:39:25;;;;;;;66.45;25.45;;;;;;;-4.27;95.65;100623.84;1756256;81;25529;-50
2023/12/09 03:41:52;;;;;;;75.40;25.15;;;;;;;-4.25;95.72;100629.73;1770369;81;25374;-50
2023/12/09 03:44:18;;;;;;;62.48;25.45;;;;;;;-4.24;95.64;100626.08;1756316;81;27521;-51
2023/12/09 03:46:45;;;;;;;65.97;24.27;;;;;;;-4.22;95.60;100624.53;1770286;81;25586;-52
2023/12/09 03:49:11;;;;;;;69.12;25.45;;;;;;;-4.18;95.68;100619.16;1756802;81;25583;-50
2023/12/09 03:51:39;;;;;;;71.87;25.85;;;;;;;-4.18;95.63;100619.97;1773430;80;26072;-53
2023/12/09 03:54:06;;;;;;;69.82;25.72;;;;;;;-4.16;95.62;100614.48;1761987;81;25467;-53
2023/12/09 03:56:33;;;;;;;70.20;25.00;;;;;;;-4.15;95.60;100610.84;1773348;80;29600;-51
2023/12/09 03:59:00;;;;;;;62.70;24.05;;;;;;;-4.16;95.48;100619.25;1761891;81;25539;-50
2023/12/09 04:01:27;;;;;;;70.87;25.90;;;;;;;-4.18;95.34;100617.33;1773440;80;25622;-50
2023/12/09 04:03:55;;;;;;;70.85;26.02;;;;;;;-4.18;95.39;100619.97;1761931;81;25904;-51
2023/12/09 04:06:22;;;;;;;76.97;26.82;;;;;;;-4.20;95.35;100619.36;1793339;80;25402;-52
2023/12/09 04:08:49;;;;;;;62.83;24.70;;;;;;;-4.20;95.31;100625.17;1761981;81;27475;-53
2023/12/09 04:11:15;;;;;;;65.83;25.57;;;;;;;-4.20;95.35;100627.81;1773368;80;25760;-55
2023/12/09 04:13:43;;;;;;;66.42;24.12;;;;;;;-4.19;95.46;100622.81;1761979;81;25590;-52
2023/12/09 04:16:10;;;;;;;62.58;24.18;;;;;;;-4.21;95.39;100623.53;1773342;80;26182;-54
2023/12/09 04:18:37;;;;;;;72.32;25.97;;;;;;;-4.24;95.27;100628.72;1761974;81;25523;-50
2023/12/09 04:21:05;;;;;;;61.37;24.07;;;;;;;-4.25;95.38;100622.32;1773343;80;28060;-51
2023/12/09 04:23:32;;;;;;;64.50;23.32;;;;;;;-4.28;95.36;100618.24;1761826;81;25604;-50
2023/12/09 04:25:59;;;;;;;63.83;24.32;;;;;;;-4.28;95.45;100622.20;1793284;80;25498;-50
2023/12/09 04:28:26;;;;;;;73.42;26.23;;;;;;;-4.29;95.42;100625.05;1761848;81;26081;-51
2023/12/09 04:30:53;;;;;;;64.75;23.60;;;;;;;-4.30;95.63;100626.87;1793263;80;25610;-51
2023/12/09 04:33:21;;;;;;;66.95;24.67;;;;;;;-4.31;95.57;100629.20;1761928;81;27557;-50
2023/12/09 04:35:48;;;;;;;67.50;25.20;;;;;;;-4.32;95.75;100631.04;1793176;78;25545;-50
2023/12/09 04:38:15;;;;;;;69.97;25.45;;;;;;;-4.33;95.61;100636.52;1761893;81;25540;-52
2023/12/09 04:40:42;;;;;;;70.78;25.25;;;;;;;-4.37;95.71;100630.84;1793221;80;25550;-50
2023/12/09 04:43:10;;;;;;;67.67;24.20;;;;;;;-4.37;95.82;100632.16;1761900;81;25602;-50
2023/12/09 04:45:37;;;;;;;72.72;24.67;;;;;;;-4.36;95.84;100626.36;1793220;78;27459;-50
2023/12/09 04:48:05;;;;;;;73.55;24.32;;;;;;;-4.36;95.98;100617.95;1761803;81;25385;-51
2023/12/09 04:50:33;;;;;;;65.97;23.98;;;;;;;-4.36;96.00;100611.34;1793113;80;25598;-51
2023/12/09 04:52:59;;;;;;;65.37;26.48;;;;;;;-4.36;95.96;100605.23;1761872;81;25547;-50
2023/12/09 04:55:27;;;;;;;68.67;25.90;;;;;;;-4.33;95.93;100599.55;1747132;80;31903;-51
2023/12/09 04:57:54;;;;;;;61.83;23.47;;;;;;;-4.34;96.03;100597.94;1761852;81;27446;-50
2023/12/09 05:00:21;;;;;;;73.33;25.40;;;;;;;-4.39;95.75;100595.90;1773205;80;25634;-50
2023/12/09 05:02:50;;;;;;;68.05;25.35;;;;;;;-4.35;95.92;100596.30;1761882;81;25435;-51
2023/12/09 05:05:17;;;;;;;65.60;24.72;;;;;;;-4.34;95.96;100593.98;1773248;80;25598;-49
2023/12/09 05:07:44;;;;;;;62.88;24.43;;;;;;;-4.35;95.97;100594.46;1761915;81;25622;-51
2023/12/09 05:10:12;;;;;;;69.58;24.32;;;;;;;-4.35;95.96;100594.46;1773265;80;28058;-50
2023/12/09 05:12:41;;;;;;;66.53;24.30;;;;;;;-4.34;95.97;100600.06;1761758;81;25749;-50
2023/12/09 05:15:09;;;;;;;68.33;25.20;;;;;;;-4.34;95.97;100586.86;1793467;80;25546;-50
2023/12/09 05:17:38;;;;;;;67.35;23.85;;;;;;;-4.34;96.00;100580.25;1761854;81;25640;-51
2023/12/09 05:20:09;;;;;;;67.87;23.65;;;;;;;-4.33;95.97;100577.91;1793215;80;25547;-50
2023/12/09 05:22:37;;;;;;;69.00;24.45;;;;;;;-4.33;95.98;100580.55;1761986;81;27461;-50
2023/12/09 05:25:06;;;;;;;78.87;26.68;;;;;;;-4.33;95.93;100579.22;1793117;80;25544;-50
2023/12/09 05:27:33;;;;;;;65.95;23.40;;;;;;;-4.33;95.91;100567.34;1762012;81;25562;-50
2023/12/09 05:30:00;;;;;;;63.15;23.73;;;;;;;-4.33;96.26;100577.09;1793109;80;25492;-50
2023/12/09 05:32:27;;;;;;;70.42;24.80;;;;;;;-4.33;96.00;100577.09;1761891;81;25618;-50
2023/12/09 05:34:55;;;;;;;68.17;22.85;;;;;;;-4.32;95.98;100578.73;1773284;80;27536;-50
2023/12/09 05:37:22;;;;;;;62.38;23.70;;;;;;;-4.29;96.29;100582.30;1761810;81;25814;-53
2023/12/09 05:39:49;;;;;;;72.80;24.95;;;;;;;-4.33;96.10;100585.02;1793220;80;25566;-52
2023/12/09 05:42:16;;;;;;;64.20;23.07;;;;;;;-4.32;96.10;100582.70;1761813;81;26637;-49
2023/12/09 05:44:43;;;;;;;67.10;23.87;;;;;;;-4.33;96.08;100592.42;1773307;80;25457;-49
2023/12/09 05:47:09;;;;;;;71.22;23.52;;;;;;;-4.33;96.15;100587.14;1761867;81;27024;-50
2023/12/09 05:49:37;;;;;;;67.92;24.32;;;;;;;-4.31;96.15;100581.66;1793073;79;25657;-50
2023/12/09 05:52:05;;;;;;;78.97;24.57;;;;;;;-4.28;96.21;100579.13;1761861;81;25653;-50
2023/12/09 05:54:34;;;;;;;58.05;18.65;;;;;;;-4.30;96.08;100578.53;1773404;80;25626;-51
2023/12/09 05:57:01;;;;;;;62.30;23.27;;;;;;;-4.29;96.22;100584.10;1761981;81;25543;-50
2023/12/09 05:59:28;;;;;;;71.20;23.85;;;;;;;-4.30;96.13;100586.45;1793187;80;27493;-50
2023/12/09 06:01:59;;;;;;;68.87;25.25;;;;;;;-4.32;96.12;100574.77;1761785;81;25555;-53
2023/12/09 06:04:26;;;;;;;66.02;23.07;;;;;;;-4.32;96.19;100569.48;1773282;80;25647;-54
2023/12/09 06:06:54;;;;;;;60.95;23.35;;;;;;;-4.32;96.20;100575.58;1761809;81;25522;-50
2023/12/09 06:09:21;;;;;;;60.67;23.55;;;;;;;-4.32;96.24;100568.17;1773359;80;25465;-54
2023/12/09 06:11:49;;;;;;;68.05;24.77;;;;;;;-4.34;96.21;100568.38;1761993;81;27489;-50
2023/12/09 06:14:17;;;;;;;69.07;24.02;;;;;;;-4.35;96.43;100570.69;1793366;80;25384;-51
2023/12/09 06:16:44;;;;;;;60.30;23.45;;;;;;;-4.34;96.36;100572.84;1762037;81;25422;-49
2023/12/09 06:19:11;;;;;;;66.57;25.15;;;;;;;-4.35;96.48;100572.53;1793297;80;25555;-54
2023/12/09 06:21:38;;;;;;;63.95;24.47;;;;;;;-4.34;96.51;100559.64;1762058;81;25446;-50
2023/12/09 06:24:06;;;;;;;72.97;23.35;;;;;;;-4.32;96.62;100558.92;1773413;80;27352;-49
2023/12/09 06:26:33;;;;;;;64.90;24.12;;;;;;;-4.30;96.67;100559.52;1761914;81;25658;-50
2023/12/09 06:29:00;;;;;;;63.00;24.00;;;;;;;-4.29;96.68;100557.69;1773503;80;25391;-50
2023/12/09 06:31:27;;;;;;;70.42;26.40;;;;;;;-4.29;96.91;100555.87;1761990;81;25572;-50
2023/12/09 06:33:54;;;;;;;67.30;24.80;;;;;;;-4.29;96.74;100555.05;1793420;80;25631;-50
2023/12/09 06:36:20;;;;;;;68.40;24.70;;;;;;;-4.28;96.80;100554.05;1762020;81;28092;-52
2023/12/09 06:38:47;;;;;;;71.00;25.52;;;;;;;-4.26;96.80;100550.69;1793285;80;25602;-50
2023/12/09 06:41:14;;;;;;;66.37;23.98;;;;;;;-4.25;96.88;100545.72;1762028;81;25366;-50
2023/12/09 06:43:41;;;;;;;68.52;24.60;;;;;;;-4.24;96.87;100542.88;1773407;80;25550;-53
2023/12/09 06:46:08;;;;;;;60.95;24.23;;;;;;;-4.22;96.98;100541.32;1762023;81;25450;-50
2023/12/09 06:48:38;;;;;;;70.03;24.35;;;;;;;-4.19;97.05;100544.88;1773408;80;28056;-51
2023/12/09 06:51:14;;;;;;;70.20;24.87;;;;;;;-4.18;96.96;100546.52;1761727;81;27267;-53
2023/12/09 06:53:42;;;;;;;68.50;25.32;;;;;;;-4.18;96.98;100543.88;1793407;80;25405;-50
2023/12/09 06:56:22;;;;;;;70.65;23.02;;;;;;;-4.16;96.90;100539.19;1761978;81;25472;-51
2023/12/09 06:58:51;;;;;;;70.78;24.65;;;;;;;-4.16;97.06;100548.44;1792908;80;25441;-51
2023/12/09 07:01:25;;;;;;;64.83;22.73;;;;;;;-4.17;97.08;100541.03;1762253;81;27568;-51
2023/12/09 07:03:51;;;;;;;72.53;25.27;;;;;;;-4.15;97.01;100546.11;1793273;80;25551;-52
2023/12/09 07:06:24;;;;;;;65.95;24.65;;;;;;;-4.15;97.21;100540.83;1761987;81;25618;-50
2023/12/09 07:08:52;;;;;;;75.30;25.72;;;;;;;-4.10;97.29;100544.15;1793332;80;25501;-50
2023/12/09 07:11:21;;;;;;;67.03;24.23;;;;;;;-4.10;97.43;100534.91;1762251;81;25405;-51
2023/12/09 07:13:49;;;;;;;67.12;24.40;;;;;;;-4.10;97.41;100531.77;1773502;80;27644;-50
2023/12/09 07:16:18;;;;;;;75.92;25.97;;;;;;;-4.05;97.53;100538.58;1761860;81;25533;-50
2023/12/09 07:18:47;;;;;;;75.15;27.55;;;;;;;-4.04;97.54;100538.05;1793602;80;25516;-51
2023/12/09 07:21:15;;;;;;;76.28;26.62;;;;;;;-4.02;97.76;100540.81;1779737;80;25550;-51
2023/12/09 07:23:45;;;;;;;73.62;26.40;;;;;;;-4.02;97.74;100541.30;1761964;81;25575;-50
2023/12/09 07:26:13;;;;;;;85.57;27.25;;;;;;;-4.00;97.73;100539.25;1793124;80;27519;-51
2023/12/09 07:28:39;;;;;;;73.37;25.48;;;;;;;-3.99;97.92;100534.28;1761883;81;25765;-51
2023/12/09 07:31:06;;;;;;;73.30;24.43;;;;;;;-3.99;97.90;100529.00;1790192;80;25397;-51
2023/12/09 07:33:33;;;;;;;77.32;26.87;;;;;;;-3.95;98.04;100538.13;1761908;81;25516;-51
2023/12/09 07:35:59;;;;;;;79.25;27.22;;;;;;;-3.95;97.98;100524.91;1773403;80;25396;-50
2023/12/09 07:38:27;;;;;;;70.83;25.45;;;;;;;-3.91;98.12;100524.81;1761959;81;28111;-51
2023/12/09 07:40:54;;;;;;;67.50;25.40;;;;;;;-3.90;98.08;100527.74;1773244;80;25540;-53
2023/12/09 07:43:20;;;;;;;64.42;23.62;;;;;;;-3.88;98.14;100534.98;1761960;81;25619;-50
2023/12/09 07:45:47;;;;;;;82.35;27.35;;;;;;;-3.86;98.14;100526.84;1793353;80;25640;-51
2023/12/09 07:48:13;;;;;;;78.15;26.50;;;;;;;-3.84;98.23;100527.44;1762062;81;25603;-50
2023/12/09 07:50:41;;;;;;;75.75;26.02;;;;;;;-3.83;98.16;100524.59;1773260;80;27386;-50
2023/12/09 07:53:07;;;;;;;79.37;26.93;;;;;;;-3.79;98.21;100519.18;1761969;81;25441;-49
2023/12/09 07:55:34;;;;;;;76.70;26.62;;;;;;;-3.76;98.46;100518.77;1764067;80;25640;-50
2023/12/09 07:58:01;;;;;;;81.57;27.67;;;;;;;-3.75;98.23;100522.22;1761927;81;25527;-51
2023/12/09 08:00:27;;;;;;;75.57;26.00;;;;;;;-3.76;98.56;100513.48;1793350;80;25471;-54
2023/12/09 08:02:55;;;;;;;76.97;26.93;;;;;;;-3.75;98.51;100516.93;1762017;81;27432;-51
2023/12/09 08:05:23;;;;;;;70.45;25.60;;;;;;;-3.73;98.55;100524.66;1773322;80;26218;-54
2023/12/09 08:07:51;;;;;;;71.55;26.57;;;;;;;-3.72;98.54;100523.12;1761963;81;25463;-54
2023/12/09 08:10:18;;;;;;;78.50;27.07;;;;;;;-3.66;98.76;100526.76;1773318;80;25599;-51
2023/12/09 08:12:44;;;;;;;76.10;25.75;;;;;;;-3.65;98.86;100526.55;1762000;81;25551;-50
2023/12/09 08:15:11;;;;;;;79.75;28.02;;;;;;;-3.68;98.57;100525.64;1793282;80;27480;-50
2023/12/09 08:17:40;;;;;;;72.10;26.12;;;;;;;-3.61;98.78;100519.01;1761852;81;25808;-52
2023/12/09 08:20:08;;;;;;;73.90;27.30;;;;;;;-3.59;98.74;100519.64;1793259;80;25566;-51
2023/12/09 08:22:38;;;;;;;81.70;27.80;;;;;;;-3.56;98.78;100523.16;1762134;81;25540;-50
2023/12/09 08:25:09;;;;;;;79.75;26.33;;;;;;;-3.51;98.83;100519.38;1793339;80;25608;-51
2023/12/09 08:27:38;;;;;;;87.40;29.77;;;;;;;-3.48;98.73;100519.48;1761929;81;27471;-54
2023/12/09 08:30:10;;;;;;;;;;;;;;;-3.45;98.73;100518.55;1775976;80;25484;-54
2023/12/09 08:32:41;;;;;;;71.65;23.32;;;;;;;-3.42;98.62;100527.91;1773390;80;25564;-54
2023/12/09 08:35:10;;;;;;;76.50;27.60;;;;;;;-3.43;98.56;100512.52;1761974;81;25532;-52
2023/12/09 08:37:39;;;;;;;75.45;26.27;;;;;;;-3.39;98.68;100513.74;1793413;80;25591;-54
2023/12/09 08:40:12;;;;;;;81.87;29.35;;;;;;;-3.38;98.44;100516.67;1762046;81;27460;-53
2023/12/09 08:42:42;;;;;;;86.35;29.40;;;;;;;-3.33;98.65;100513.92;1793206;80;25642;-53
2023/12/09 08:45:14;;;;;;;86.40;29.00;;;;;;;-3.32;98.64;100519.00;1761956;81;25632;-52
2023/12/09 08:47:41;;;;;;;92.53;28.62;;;;;;;-3.35;98.58;100511.98;1793285;80;25981;-54
2023/12/09 08:50:09;;;;;;;88.62;28.98;;;;;;;-3.34;98.42;100508.32;1761902;81;25310;-53
2023/12/09 08:52:37;;;;;;;89.37;31.10;;;;;;;-3.32;98.54;100505.78;1770939;80;27459;-50
2023/12/09 08:55:06;;;;;;;81.05;30.65;;;;;;;-3.32;98.63;100509.75;1756162;81;25623;-52
2023/12/09 08:57:32;;;;;;;77.42;29.32;;;;;;;-3.31;98.74;100498.64;1776447;80;25554;-49
2023/12/09 08:59:59;;;;;;;83.97;30.40;;;;;;;-3.29;98.68;100505.33;1756207;81;25561;-51
2023/12/09 09:02:26;;;;;;;88.00;29.23;;;;;;;-3.26;98.71;100502.78;1776347;80;25456;-53
2023/12/09 09:04:53;;;;;;;92.45;29.92;;;;;;;-3.23;98.81;100500.52;1726489;81;27169;-52
2023/12/09 09:07:20;;;;;;;84.65;31.02;;;;;;;-3.21;98.83;100496.34;1770135;81;25420;-51
2023/12/09 09:09:46;;;;;;;80.70;27.93;;;;;;;-3.19;98.79;100496.94;1756180;81;25558;-51
2023/12/09 09:12:13;;;;;;;95.67;32.10;;;;;;;-3.20;98.71;100490.84;1776266;80;25543;-51
2023/12/09 09:14:41;;;;;;;94.60;31.77;;;;;;;-3.19;98.70;100484.52;1756218;81;25601;-51
2023/12/09 09:17:07;;;;;;;90.90;32.63;;;;;;;-3.16;98.89;100479.31;1770281;81;28090;-51
2023/12/09 09:19:36;;;;;;;94.45;32.55;;;;;;;-3.14;98.85;100465.88;1756157;81;25600;-51
2023/12/09 09:22:03;;;;;;;86.10;30.90;;;;;;;-3.09;98.92;100464.72;1776567;80;25552;-50
2023/12/09 09:24:30;;;;;;;92.40;30.12;;;;;;;-3.08;98.79;100467.65;1756180;81;26141;-50
2023/12/09 09:26:57;;;;;;;88.15;30.60;;;;;;;-3.06;98.81;100458.48;1770345;81;25634;-49
2023/12/09 09:29:24;;;;;;;81.47;30.52;;;;;;;-3.01;98.99;100458.66;1756226;81;27497;-51
2023/12/09 09:31:51;;;;;;;100.62;33.20;;;;;;;-2.97;99.01;100460.87;1770181;80;25465;-51
2023/12/09 09:34:18;;;;;;;85.28;32.95;;;;;;;-2.95;99.15;100449.03;1756205;81;25458;-50
2023/12/09 09:36:45;;;;;;;88.80;31.75;;;;;;;-2.90;99.02;100453.69;1776314;80;25596;-52
2023/12/09 09:39:12;;;;;;;92.53;32.45;;;;;;;-2.88;98.92;100453.78;1756247;81;25571;-50
2023/12/09 09:42:27;;;;;;;96.75;33.55;;;;;;;-2.85;98.78;100447.23;1769877;81;28213;-54
2023/12/09 09:45:18;;;;;;;97.08;34.00;;;;;;;-2.83;98.85;100441.20;1753888;81;25893;-61
2023/12/09 09:47:48;;;;;;;81.78;31.82;;;;;;;-2.80;98.88;100434.67;1774855;80;25448;-58
2023/12/09 09:50:21;;;;;;;93.22;32.80;;;;;;;-2.79;98.80;100433.63;1755988;81;26141;-54
2023/12/09 09:52:50;;;;;;;96.35;32.48;;;;;;;-2.76;99.05;100428.70;1788129;80;25913;-52
2023/12/09 09:55:20;;;;;;;99.05;33.23;;;;;;;-2.71;99.04;100426.22;1761787;81;27478;-52
2023/12/09 09:57:49;;;;;;;92.92;33.42;;;;;;;-2.65;99.11;100421.91;1793107;80;25435;-51
2023/12/09 10:00:19;;;;;;;101.38;32.73;;;;;;;-2.61;99.03;100420.95;1761957;81;25444;-51
2023/12/09 10:02:49;;;;;;;96.70;34.25;;;;;;;-2.62;98.84;100413.53;1793217;80;26061;-52
2023/12/09 10:05:17;;;;;;;;;;;;;;;-2.59;99.06;100407.77;1764520;81;25610;-52
2023/12/09 10:07:46;;;;;;;89.00;31.45;;;;;;;-2.55;98.95;100415.59;1773312;80;27554;-52
2023/12/09 10:10:16;;;;;;;249.58;124.12;;;;;;;-2.53;98.93;100415.38;1761904;81;25577;-54
2023/12/09 10:12:45;;;;;;;125.40;47.65;;;;;;;-2.47;99.30;100408.69;1773340;80;25477;-54
2023/12/09 10:15:12;;;;;;;93.10;33.63;;;;;;;-2.38;99.62;100409.70;1761851;81;25637;-62
2023/12/09 10:17:39;;;;;;;95.03;34.15;;;;;;;-2.35;99.52;100400.83;1773326;80;25627;-62
2023/12/09 10:20:09;;;;;;;93.70;33.63;;;;;;;-2.29;99.23;100399.13;1761811;81;27375;-53
2023/12/09 10:22:37;;;;;;;90.55;33.58;;;;;;;-2.25;99.26;100393.66;1793063;80;25613;-50
2023/12/09 10:25:07;;;;;;;101.30;33.75;;;;;;;-2.19;99.17;100386.69;1761841;81;25614;-50
2023/12/09 10:27:34;;;;;;;94.83;32.40;;;;;;;-2.14;99.10;100381.53;1773236;80;25528;-51
2023/12/09 10:30:01;;;;;;;95.85;32.58;;;;;;;-2.13;98.75;100377.34;1761794;81;25614;-50
2023/12/09 10:32:28;;;;;;;96.37;33.92;;;;;;;-2.12;98.51;100377.61;1793183;80;28574;-49
2023/12/09 10:34:56;;;;;;;87.55;31.75;;;;;;;-2.13;98.18;100373.86;1761729;81;25648;-52
2023/12/09 10:37:24;;;;;;;88.22;32.70;;;;;;;-2.12;98.32;100383.44;1773271;80;25555;-51
2023/12/09 10:39:51;;;;;;;90.35;33.13;;;;;;;-2.11;98.39;100376.59;1759112;81;25550;-52
2023/12/09 10:42:18;;;;;;;91.72;32.80;;;;;;;-2.12;98.37;100363.03;1763846;80;25475;-51
2023/12/09 10:44:47;;;;;;;87.53;31.82;;;;;;;-2.07;98.58;100365.02;1761836;81;27468;-51
2023/12/09 10:47:14;;;;;;;85.25;33.33;;;;;;;-2.02;98.57;100369.14;1793051;80;25649;-49
2023/12/09 10:49:41;;;;;;;92.45;33.48;;;;;;;-2.00;98.59;100372.89;1761807;81;25395;-51
2023/12/09 10:52:09;;;;;;;95.03;33.20;;;;;;;-1.96;98.69;100367.42;1773043;80;25539;-51
2023/12/09 10:54:36;;;;;;;85.42;32.78;;;;;;;-1.94;98.65;100369.33;1761977;81;25451;-49
2023/12/09 10:57:07;;;;;;;93.75;34.58;;;;;;;-1.93;98.54;100382.37;1793290;80;28689;-49
2023/12/09 10:59:36;;;;;;;85.95;32.23;;;;;;;-1.91;98.56;100374.19;1761902;81;25531;-52
2023/12/09 11:02:05;;;;;;;98.67;32.00;;;;;;;-1.88;98.61;100369.25;1747471;80;25478;-51
2023/12/09 11:04:34;;;;;;;85.85;32.93;;;;;;;-1.89;98.46;100363.67;1762087;81;25577;-50
2023/12/09 11:07:04;;;;;;;90.03;31.62;;;;;;;-1.84;98.47;100366.95;1793458;80;25582;-53
2023/12/09 11:09:34;;;;;;;80.17;31.20;;;;;;;-1.83;98.53;100350.02;1761980;81;27532;-51
2023/12/09 11:12:01;;;;;;;88.62;31.55;;;;;;;-1.82;98.33;100354.80;1793230;80;25597;-49
2023/12/09 11:14:28;;;;;;;84.42;30.32;;;;;;;-1.79;98.55;100354.35;1762063;81;25254;-49
2023/12/09 11:16:57;;;;;;;80.90;31.85;;;;;;;-1.78;98.57;100348.83;1793274;80;25609;-52
2023/12/09 11:19:25;;;;;;;84.75;30.48;;;;;;;-1.75;98.56;100346.25;1761986;81;25564;-50
2023/12/09 11:21:53;;;;;;;91.93;35.97;;;;;;;-1.73;98.61;100348.16;1773645;80;28082;-49
2023/12/09 11:24:20;;;;;;;87.85;36.40;;;;;;;-1.70;98.80;100353.02;1761853;81;26257;-50
2023/12/09 11:26:47;;;;;;;86.30;30.80;;;;;;;-1.64;98.85;100355.27;1773383;80;25533;-49
2023/12/09 11:29:18;;;;;;;85.87;30.37;;;;;;;-1.60;98.84;100344.48;1761935;81;25618;-49